Terminal Aerodrome Forecast
Issued by NWS

Home | Current Version | Previous Version | Text Only | Print | Product List | Glossary On
Versions: 1 2 3 4 5 6 7 8 9 10 11 12 13 14 15 16 17 18 19 20 21 22 23 24 25 26 27
000
FTPQ31 PGUM 021120
TAFGUM
TAF

TAF
PTRO 021120Z 0212/0312 04006KT P6SM VCSH BKN015 BKN110
     FM022200 05011G17KT P6SM VCSH SCT016 BKN050 BKN120
     FM030900 06006KT P6SM VCSH SCT016 BKN120=

USA.gov is the U.S. government's official web portal to all federal, state and local government web resources and services.